createdAt,value
2018-06-25T00:00:43.699Z,99249.60
2018-06-25T00:03:12.708Z,99240.68
2018-06-25T00:05:41.051Z,99236.69
2018-06-25T00:08:09.460Z,99237.54
2018-06-25T00:10:37.776Z,99232.18
2018-06-25T00:13:06.604Z,99235.79
2018-06-25T00:15:36.129Z,99233.05
2018-06-25T00:18:04.847Z,99232.91
2018-06-25T00:20:33.216Z,99239.30
2018-06-25T00:23:01.513Z,99238.47
2018-06-25T00:25:29.921Z,99231.83
2018-06-25T00:27:58.565Z,99236.89
2018-06-25T00:30:26.896Z,99238.67
2018-06-25T00:32:55.231Z,99232.97
2018-06-25T00:35:23.558Z,99233.43
2018-06-25T00:37:52.565Z,99234.08
2018-06-25T00:40:20.900Z,99240.42
2018-06-25T00:42:49.765Z,99236.63
2018-06-25T00:45:18.108Z,99243.27
2018-06-25T00:47:46.443Z,99238.67
2018-06-25T00:50:14.797Z,99238.09
2018-06-25T00:52:43.082Z,99248.31
2018-06-25T00:55:11.420Z,99244.17
2018-06-25T00:57:39.817Z,99252.98
2018-06-25T01:00:08.168Z,99252.70
2018-06-25T01:02:36.511Z,99244.73
2018-06-25T01:05:04.893Z,99244.79
2018-06-25T01:07:33.197Z,99248.55
2018-06-25T01:10:01.552Z,99251.52
2018-06-25T01:12:29.862Z,99248.04
2018-06-25T01:14:58.220Z,99245.87
2018-06-25T01:17:26.513Z,99246.44
2018-06-25T01:19:54.860Z,99252.84
2018-06-25T01:22:23.201Z,99245.17
2018-06-25T01:24:51.582Z,99248.84
2018-06-25T01:27:19.883Z,99253.91
2018-06-25T01:29:48.215Z,99248.83
2018-06-25T01:32:16.543Z,99250.38
2018-06-25T01:34:45.750Z,99251.17
2018-06-25T01:37:14.143Z,99248.06
2018-06-25T01:39:42.465Z,99253.55
2018-06-25T01:42:11.577Z,99251.66
2018-06-25T01:44:39.922Z,99257.62
2018-06-25T01:47:08.229Z,99257.50
2018-06-25T01:49:36.572Z,99252.86
2018-06-25T01:52:04.881Z,99253.83
2018-06-25T01:54:33.260Z,99250.44
2018-06-25T01:57:02.053Z,99257.06
2018-06-25T01:59:30.412Z,99265.39
2018-06-25T02:01:58.717Z,99261.59
2018-06-25T02:04:27.064Z,99260.25
2018-06-25T02:06:55.396Z,99259.25
2018-06-25T02:09:23.755Z,99260.45
2018-06-25T02:11:52.039Z,99256.73
2018-06-25T02:14:20.545Z,99258.20
2018-06-25T02:16:48.823Z,99250.59
2018-06-25T02:19:17.148Z,99254.32
2018-06-25T02:21:45.498Z,99254.72
2018-06-25T02:24:14.000Z,99254.79
2018-06-25T02:26:42.286Z,99254.86
2018-06-25T02:29:10.614Z,99244.66
2018-06-25T02:31:38.942Z,99253.09
2018-06-25T02:34:07.214Z,99249.75
2018-06-25T02:36:35.558Z,99253.91
2018-06-25T02:39:04.964Z,99256.34
2018-06-25T02:41:33.299Z,99255.72
2018-06-25T02:44:01.587Z,99254.73
2018-06-25T02:46:29.899Z,99256.16
2018-06-25T02:48:58.186Z,99258.62
2018-06-25T02:51:27.071Z,99257.92
2018-06-25T02:53:55.360Z,99251.72
2018-06-25T02:56:23.964Z,99263.97
2018-06-25T02:58:52.250Z,99259.89
2018-06-25T03:01:20.547Z,99258.34
2018-06-25T03:03:48.953Z,99262.97
2018-06-25T03:06:17.577Z,99270.92
2018-06-25T03:08:45.870Z,99263.91
2018-06-25T03:11:14.322Z,99267.08
2018-06-25T03:13:42.581Z,99271.32
2018-06-25T03:16:10.890Z,99272.36
2018-06-25T03:18:39.184Z,99274.34
2018-06-25T03:21:07.531Z,99271.59
2018-06-25T03:23:36.626Z,99274.68
2018-06-25T03:26:04.986Z,99271.02
2018-06-25T03:28:33.255Z,99270.67
2018-06-25T03:31:01.595Z,99268.28
2018-06-25T03:33:29.872Z,99277.02
2018-06-25T03:35:58.201Z,99274.41
2018-06-25T03:38:26.529Z,99277.02
2018-06-25T03:40:54.839Z,99283.84
2018-06-25T03:43:23.126Z,99282.72
2018-06-25T03:45:51.483Z,99289.27
2018-06-25T03:48:20.127Z,99283.56
2018-06-25T03:50:48.471Z,99282.38
2018-06-25T03:53:16.762Z,99286.38
2018-06-25T03:55:45.058Z,99283.08
2018-06-25T03:58:13.340Z,99285.55
2018-06-25T04:00:42.018Z,99289.25
2018-06-25T04:03:10.915Z,99293.15
2018-06-25T04:05:39.302Z,99300.16
2018-06-25T04:08:07.839Z,99303.02
2018-06-25T04:10:36.141Z,99304.28
2018-06-25T04:13:04.494Z,99307.59
2018-06-25T04:15:32.894Z,99313.38
2018-06-25T04:18:01.214Z,99321.77
2018-06-25T04:20:29.541Z,99322.19
2018-06-25T04:22:57.870Z,99321.80
2018-06-25T04:25:26.194Z,99329.55
2018-06-25T04:27:54.547Z,99331.59
2018-06-25T04:30:23.471Z,99328.66
2018-06-25T04:32:52.651Z,99327.52
2018-06-25T04:35:20.998Z,99336.38
2018-06-25T04:37:49.323Z,99329.68
2018-06-25T04:40:17.654Z,99332.31
2018-06-25T04:42:46.154Z,99331.86
2018-06-25T04:45:14.467Z,99334.41
2018-06-25T04:47:42.773Z,99330.31
2018-06-25T04:50:11.083Z,99332.42
2018-06-25T04:52:39.386Z,99320.12
2018-06-25T04:55:07.705Z,99335.06
2018-06-25T04:57:36.010Z,99326.67
2018-06-25T05:00:04.326Z,99330.97
2018-06-25T05:02:32.649Z,99329.79
2018-06-25T05:05:00.914Z,99332.19
2018-06-25T05:07:29.461Z,99329.85
2018-06-25T05:09:57.970Z,99326.03
2018-06-25T05:12:26.373Z,99333.79
2018-06-25T05:14:54.658Z,99335.15
2018-06-25T05:17:22.968Z,99340.16
2018-06-25T05:19:51.259Z,99342.27
2018-06-25T05:22:25.160Z,99342.18
2018-06-25T05:24:54.727Z,99335.84
2018-06-25T05:27:26.081Z,99343.52
2018-06-25T05:29:54.356Z,99342.69
2018-06-25T05:32:22.708Z,99346.07
2018-06-25T05:34:51.051Z,99350.66
2018-06-25T05:37:19.483Z,99354.23
2018-06-25T05:39:47.986Z,99356.94
2018-06-25T05:42:21.410Z,99352.49
2018-06-25T05:44:51.402Z,99355.17
2018-06-25T05:47:21.130Z,99359.95
2018-06-25T05:49:49.550Z,99364.08
2018-06-25T05:52:20.917Z,99359.95
2018-06-25T05:54:49.255Z,99367.50
2018-06-25T05:57:17.706Z,99369.20
2018-06-25T05:59:46.018Z,99366.66
2018-06-25T06:02:14.719Z,99365.25
2018-06-25T06:04:43.113Z,99371.89
2018-06-25T06:07:11.455Z,99371.39
2018-06-25T06:09:39.851Z,99375.34
2018-06-25T06:12:08.160Z,99376.05
2018-06-25T06:14:36.474Z,99372.94
2018-06-25T06:17:04.850Z,99372.53
2018-06-25T06:19:33.121Z,99371.44
2018-06-25T06:22:01.515Z,99376.95
2018-06-25T06:24:30.443Z,99381.48
2018-06-25T06:26:58.690Z,99388.62
2018-06-25T06:29:26.998Z,99390.13
2018-06-25T06:31:55.491Z,99394.25
2018-06-25T06:34:23.806Z,99400.66
2018-06-25T06:36:52.222Z,99397.54
2018-06-25T06:39:20.499Z,99389.49
2018-06-25T06:41:48.856Z,99398.53
2018-06-25T06:44:17.321Z,99396.93
2018-06-25T06:46:45.674Z,99398.43
2018-06-25T06:49:13.968Z,99399.51
2018-06-25T06:51:42.342Z,99406.85
2018-06-25T06:54:10.620Z,99404.38
2018-06-25T06:56:39.045Z,99407.67
2018-06-25T06:59:07.306Z,99412.73
2018-06-25T07:01:35.610Z,99413.09
2018-06-25T07:04:03.914Z,99413.73
2018-06-25T07:06:32.306Z,99409.62
2018-06-25T07:09:00.653Z,99409.69
2018-06-25T07:11:28.987Z,99411.59
2018-06-25T07:13:57.338Z,99405.63
2018-06-25T07:16:25.642Z,99414.17
2018-06-25T07:18:54.170Z,99410.40
2018-06-25T07:21:22.498Z,99415.77
2018-06-25T07:23:50.837Z,99409.20
2018-06-25T07:26:21.982Z,99407.81
2018-06-25T07:28:50.311Z,99408.88
2018-06-25T07:31:18.638Z,99406.22
2018-06-25T07:33:47.020Z,99405.97
2018-06-25T07:36:15.299Z,99411.39
2018-06-25T07:38:44.070Z,99414.67
2018-06-25T07:41:12.414Z,99417.70
2018-06-25T07:43:40.751Z,99424.95
2018-06-25T07:46:09.038Z,99423.33
2018-06-25T07:48:37.674Z,99417.30
2018-06-25T07:51:05.982Z,99418.78
2018-06-25T07:53:35.730Z,99424.98
2018-06-25T07:56:04.058Z,99420.25
2018-06-25T07:58:33.146Z,99423.27
2018-06-25T08:01:01.585Z,99419.42
2018-06-25T08:03:29.908Z,99420.58
2018-06-25T08:05:58.225Z,99416.25
2018-06-25T08:08:26.793Z,99423.81
2018-06-25T08:10:55.193Z,99413.17
2018-06-25T08:13:23.764Z,99418.67
2018-06-25T08:15:52.063Z,99421.64
2018-06-25T08:18:20.366Z,99428.01
2018-06-25T08:20:48.654Z,99420.77
2018-06-25T08:23:16.988Z,99427.99
2018-06-25T08:25:45.309Z,99432.80
2018-06-25T08:28:13.660Z,99435.44
2018-06-25T08:30:41.992Z,99433.67
2018-06-25T08:33:10.379Z,99427.08
2018-06-25T08:35:38.648Z,99429.39
2018-06-25T08:38:07.443Z,99437.41
2018-06-25T08:40:35.738Z,99439.15
2018-06-25T08:43:04.067Z,99438.48
2018-06-25T08:45:32.348Z,99442.03
2018-06-25T08:48:00.754Z,99445.34
2018-06-25T08:50:29.050Z,99444.95
2018-06-25T08:52:57.426Z,99450.58
2018-06-25T08:55:25.707Z,99448.64
2018-06-25T08:57:54.023Z,99453.49
2018-06-25T09:00:22.420Z,99452.30
2018-06-25T09:02:50.738Z,99447.64
2018-06-25T09:05:19.044Z,99457.91
2018-06-25T09:07:47.341Z,99458.19
2018-06-25T09:10:15.607Z,99457.99
2018-06-25T09:12:43.915Z,99469.33
2018-06-25T09:15:12.236Z,99455.91
2018-06-25T09:17:40.498Z,99462.38
2018-06-25T09:20:08.932Z,99463.03
2018-06-25T09:22:37.240Z,99460.03
2018-06-25T09:25:05.595Z,99455.72
2018-06-25T09:27:39.115Z,99457.11
2018-06-25T09:30:07.446Z,99456.74
2018-06-25T09:32:35.790Z,99457.27
2018-06-25T09:35:04.103Z,99468.86
2018-06-25T09:37:32.418Z,99465.02
2018-06-25T09:40:00.711Z,99462.84
2018-06-25T09:42:29.079Z,99459.36
2018-06-25T09:44:57.402Z,99468.06
2018-06-25T09:47:25.715Z,99456.84
2018-06-25T09:49:54.014Z,99449.16
2018-06-25T09:52:22.290Z,99453.03
2018-06-25T09:54:50.726Z,99457.84
2018-06-25T09:57:19.042Z,99466.79
2018-06-25T09:59:47.352Z,99474.95
2018-06-25T10:02:16.166Z,99465.72
2018-06-25T10:04:44.484Z,99449.58
2018-06-25T10:07:12.766Z,99448.34
2018-06-25T10:09:41.151Z,99448.68
2018-06-25T10:12:09.683Z,99447.84
2018-06-25T10:14:38.622Z,99444.32
2018-06-25T10:17:06.983Z,99451.52
2018-06-25T10:19:35.300Z,99455.73
2018-06-25T10:22:03.883Z,99452.03
2018-06-25T10:24:32.222Z,99457.61
2018-06-25T10:27:00.506Z,99455.77
2018-06-25T10:29:28.899Z,99454.66
2018-06-25T10:31:57.182Z,99454.07
2018-06-25T10:34:25.592Z,99446.16
2018-06-25T10:36:53.933Z,99446.70
2018-06-25T10:39:22.275Z,99445.69
2018-06-25T10:41:50.576Z,99444.13
2018-06-25T10:44:19.249Z,99441.61
2018-06-25T10:46:47.566Z,99449.41
2018-06-25T10:49:15.898Z,99442.43
2018-06-25T10:51:44.199Z,99445.83
2018-06-25T10:54:12.564Z,99442.45
2018-06-25T10:56:41.002Z,99450.47
2018-06-25T10:59:09.378Z,99454.08
2018-06-25T11:01:37.696Z,99451.52
2018-06-25T11:04:06.060Z,99458.19
2018-06-25T11:06:34.345Z,99455.14
2018-06-25T11:09:02.675Z,99458.35
2018-06-25T11:11:30.950Z,99455.94
2018-06-25T11:13:59.283Z,99449.20
2018-06-25T11:16:27.658Z,99453.59
2018-06-25T11:18:56.134Z,99451.57
2018-06-25T11:21:24.471Z,99457.16
2018-06-25T11:23:52.838Z,99457.08
2018-06-25T11:26:21.125Z,99448.00
2018-06-25T11:28:49.462Z,99459.02
2018-06-25T11:31:17.869Z,99452.08
2018-06-25T11:33:46.151Z,99451.58
2018-06-25T11:36:14.445Z,99449.88
2018-06-25T11:38:42.798Z,99453.27
2018-06-25T11:41:11.097Z,99451.23
2018-06-25T11:43:39.409Z,99445.81
2018-06-25T11:46:07.730Z,99449.30
2018-06-25T11:48:36.009Z,99443.63
2018-06-25T11:51:04.350Z,99446.85
2018-06-25T11:53:32.646Z,99442.29
2018-06-25T11:56:00.977Z,99449.66
2018-06-25T11:58:29.270Z,99447.19
2018-06-25T12:00:57.790Z,99439.45
2018-06-25T12:03:26.268Z,99442.41
2018-06-25T12:05:54.557Z,99440.23
2018-06-25T12:08:22.909Z,99432.75
2018-06-25T12:10:51.234Z,99432.84
2018-06-25T12:13:19.505Z,99433.35
2018-06-25T12:15:47.913Z,99436.78
2018-06-25T12:18:16.278Z,99444.14
2018-06-25T12:20:44.610Z,99440.41
2018-06-25T12:23:13.302Z,99441.62
2018-06-25T12:25:41.666Z,99451.92
2018-06-25T12:28:09.959Z,99445.50
2018-06-25T12:30:38.451Z,99454.95
2018-06-25T12:33:07.498Z,99446.16
2018-06-25T12:35:36.127Z,99452.93
2018-06-25T12:38:04.807Z,99454.73
2018-06-25T12:40:33.181Z,99458.95
2018-06-25T12:43:01.554Z,99458.80
2018-06-25T12:45:30.057Z,99460.02
2018-06-25T12:47:58.388Z,99460.72
2018-06-25T12:50:26.693Z,99462.89
2018-06-25T12:52:54.994Z,99473.88
2018-06-25T12:55:23.442Z,99465.44
2018-06-25T12:57:51.726Z,99477.59
2018-06-25T13:00:20.078Z,99468.46
2018-06-25T13:02:48.542Z,99474.87
2018-06-25T13:05:17.143Z,99479.45
2018-06-25T13:07:45.438Z,99480.63
2018-06-25T13:10:13.802Z,99479.59
2018-06-25T13:12:42.170Z,99480.28
2018-06-25T13:15:10.626Z,99481.61
2018-06-25T13:17:38.986Z,99486.84
2018-06-25T13:20:07.489Z,99495.62
2018-06-25T13:22:36.014Z,99493.00
2018-06-25T13:25:04.847Z,99488.79
2018-06-25T13:27:33.180Z,99490.72
2018-06-25T13:30:01.495Z,99488.02
2018-06-25T13:32:29.762Z,99478.75
2018-06-25T13:34:58.261Z,99480.39
2018-06-25T13:37:26.590Z,99490.05
2018-06-25T13:39:54.885Z,99481.61
2018-06-25T13:42:23.198Z,99486.33
2018-06-25T13:44:51.494Z,99483.60
2018-06-25T13:47:19.805Z,99480.73
2018-06-25T13:49:48.190Z,99485.25
2018-06-25T13:52:16.530Z,99483.05
2018-06-25T13:54:44.887Z,99482.72
2018-06-25T13:57:13.184Z,99485.92
2018-06-25T13:59:41.605Z,99484.95
2018-06-25T14:02:10.106Z,99483.63
2018-06-25T14:04:38.655Z,99481.27
2018-06-25T14:07:06.966Z,99474.88
2018-06-25T14:09:35.254Z,99476.38
2018-06-25T14:12:03.626Z,99470.66
2018-06-25T14:16:55.170Z,99468.39
2018-06-25T14:19:23.468Z,99472.16
2018-06-25T14:21:51.817Z,99477.60
2018-06-25T14:24:25.687Z,99480.47
2018-06-25T14:26:58.160Z,99473.71
2018-06-25T14:29:31.444Z,99472.18
2018-06-25T14:32:05.655Z,99477.58
2018-06-25T14:34:33.993Z,99484.67
2018-06-25T14:37:02.353Z,99478.08
2018-06-25T14:39:30.666Z,99479.27
2018-06-25T14:41:59.031Z,99480.95
2018-06-25T14:44:27.489Z,99481.14
2018-06-25T14:46:56.153Z,99479.11
2018-06-25T14:49:24.438Z,99478.59
2018-06-25T14:51:52.755Z,99484.02
2018-06-25T14:54:21.118Z,99477.26
2018-06-25T14:56:49.456Z,99470.13
2018-06-25T14:59:17.767Z,99469.11
2018-06-25T15:01:46.360Z,99463.48
2018-06-25T15:04:14.693Z,99469.23
2018-06-25T15:06:43.006Z,99466.98
2018-06-25T15:09:12.459Z,99461.00
2018-06-25T15:11:40.834Z,99465.20
2018-06-25T15:14:09.111Z,99474.86
2018-06-25T15:16:37.515Z,99467.41
2018-06-25T15:19:05.890Z,99465.75
2018-06-25T15:21:34.263Z,99461.37
2018-06-25T15:24:02.601Z,99468.48
2018-06-25T15:26:30.947Z,99462.39
2018-06-25T15:28:59.227Z,99468.64
2018-06-25T15:31:27.802Z,99474.05
2018-06-25T15:33:56.235Z,99472.53
2018-06-25T15:36:24.550Z,99472.17
2018-06-25T15:38:52.898Z,99471.35
2018-06-25T15:41:21.275Z,99470.48
2018-06-25T15:43:49.579Z,99475.58
2018-06-25T15:46:18.047Z,99471.53
2018-06-25T15:48:46.358Z,99476.39
2018-06-25T15:51:14.638Z,99482.31
2018-06-25T15:53:43.005Z,99473.21
2018-06-25T15:56:11.275Z,99470.62
2018-06-25T15:58:40.053Z,99474.54
2018-06-25T16:01:08.338Z,99460.66
2018-06-25T16:03:36.709Z,99461.89
2018-06-25T16:06:05.191Z,99466.63
2018-06-25T16:08:33.534Z,99453.66
2018-06-25T16:11:01.841Z,99454.35
2018-06-25T16:13:30.221Z,99457.81
2018-06-25T16:15:58.547Z,99452.98
2018-06-25T16:18:26.953Z,99455.84
2018-06-25T16:20:55.234Z,99462.41
2018-06-25T16:23:23.594Z,99449.67
2018-06-25T16:25:51.943Z,99451.13
2018-06-25T16:28:20.309Z,99454.89
2018-06-25T16:30:48.592Z,99453.52
2018-06-25T16:33:16.913Z,99457.83
2018-06-25T16:35:45.229Z,99447.94
2018-06-25T16:38:13.610Z,99442.17
2018-06-25T16:40:42.184Z,99449.71
2018-06-25T16:43:10.742Z,99437.01
2018-06-25T16:45:39.136Z,99442.23
2018-06-25T16:48:07.739Z,99444.28
2018-06-25T16:50:36.721Z,99442.19
2018-06-25T16:53:05.071Z,99453.75
2018-06-25T16:55:33.441Z,99440.60
2018-06-25T16:58:01.986Z,99443.03
2018-06-25T17:00:30.372Z,99445.33
2018-06-25T17:02:58.753Z,99444.64
2018-06-25T17:05:27.424Z,99448.22
2018-06-25T17:07:55.873Z,99443.78
2018-06-25T17:10:24.261Z,99452.58
2018-06-25T17:12:52.661Z,99441.38
2018-06-25T17:15:20.995Z,99444.80
2018-06-25T17:17:49.360Z,99440.43
2018-06-25T17:20:17.711Z,99436.89
2018-06-25T17:22:46.130Z,99440.73
2018-06-25T17:25:17.620Z,99434.98
2018-06-25T17:27:47.556Z,99431.77
2018-06-25T17:30:17.494Z,99427.08
2018-06-25T17:32:45.956Z,99430.64
2018-06-25T17:35:15.462Z,99441.25
2018-06-25T17:37:46.379Z,99432.66
2018-06-25T17:40:16.448Z,99434.69
2018-06-25T17:42:55.714Z,99437.23
2018-06-25T17:45:24.124Z,99438.08
2018-06-25T17:47:55.797Z,99437.39
2018-06-25T17:50:24.481Z,99437.04
2018-06-25T17:52:55.400Z,99442.47
2018-06-25T17:55:26.703Z,99448.53
2018-06-25T17:57:55.058Z,99445.15
2018-06-25T18:00:23.398Z,99445.83
2018-06-25T18:02:51.744Z,99443.48
2018-06-25T18:05:20.255Z,99438.38
2018-06-25T18:07:48.582Z,99445.30
2018-06-25T18:10:16.892Z,99437.74
2018-06-25T18:12:45.343Z,99438.05
2018-06-25T18:15:14.774Z,99438.23
2018-06-25T18:17:43.101Z,99435.17
2018-06-25T18:20:11.558Z,99436.52
2018-06-25T18:22:39.874Z,99424.70
2018-06-25T18:25:08.407Z,99430.27
2018-06-25T18:27:36.729Z,99427.76
2018-06-25T18:30:05.638Z,99428.58
2018-06-25T18:32:33.930Z,99432.66
2018-06-25T18:35:02.252Z,99442.13
2018-06-25T18:37:30.534Z,99446.69
2018-06-25T18:39:59.119Z,99438.39
2018-06-25T18:42:27.610Z,99445.52
2018-06-25T18:44:55.950Z,99442.11
2018-06-25T18:47:24.247Z,99445.50
2018-06-25T18:49:52.598Z,99444.83
2018-06-25T18:52:21.092Z,99445.67
2018-06-25T18:54:49.408Z,99448.87
2018-06-25T18:57:17.887Z,99443.47
2018-06-25T18:59:46.187Z,99446.69
2018-06-25T19:02:14.492Z,99445.00
2018-06-25T19:04:42.841Z,99451.23
2018-06-25T19:07:11.230Z,99442.13
2018-06-25T19:09:39.530Z,99438.05
2018-06-25T19:12:08.486Z,99445.81
2018-06-25T19:14:36.885Z,99446.48
2018-06-25T19:17:06.135Z,99446.45
2018-06-25T19:19:34.438Z,99448.74
2018-06-25T19:22:02.728Z,99450.02
2018-06-25T19:24:31.086Z,99451.64
2018-06-25T19:26:59.882Z,99457.47
2018-06-25T19:29:28.265Z,99456.78
2018-06-25T19:31:56.908Z,99459.20
2018-06-25T19:34:25.906Z,99453.30
2018-06-25T19:36:54.754Z,99462.91
2018-06-25T19:39:23.175Z,99467.10
2018-06-25T19:41:51.590Z,99461.41
2018-06-25T19:44:20.228Z,99464.64
2018-06-25T19:46:48.845Z,99459.20
2018-06-25T19:49:19.950Z,99468.29
2018-06-25T19:51:49.474Z,99467.63
2018-06-25T19:54:18.299Z,99474.05
2018-06-25T19:56:46.633Z,99476.15
2018-06-25T19:59:15.618Z,99479.70
2018-06-25T20:01:44.647Z,99476.34
2018-06-25T20:04:13.069Z,99475.66
2018-06-25T20:06:41.403Z,99483.50
2018-06-25T20:09:12.779Z,99484.56
2018-06-25T20:11:41.616Z,99484.72
2018-06-25T20:14:10.125Z,99487.19
2018-06-25T20:16:38.627Z,99487.69
2018-06-25T20:19:06.958Z,99491.25
2018-06-25T20:21:35.968Z,99487.27
2018-06-25T20:24:04.475Z,99484.23
2018-06-25T20:26:32.783Z,99485.23
2018-06-25T20:29:01.622Z,99490.19
2018-06-25T20:31:29.966Z,99486.52
2018-06-25T20:33:58.918Z,99494.84
2018-06-25T20:36:27.234Z,99492.59
2018-06-25T20:38:55.510Z,99490.95
2018-06-25T20:41:24.646Z,99488.20
2018-06-25T20:43:52.933Z,99491.14
2018-06-25T20:46:21.253Z,99490.20
2018-06-25T20:48:49.543Z,99495.58
2018-06-25T20:51:17.865Z,99495.94
2018-06-25T20:53:46.162Z,99503.32
2018-06-25T20:56:14.664Z,99500.21
2018-06-25T20:58:42.954Z,99503.09
2018-06-25T21:01:11.283Z,99497.42
2018-06-25T21:03:39.614Z,99493.09
2018-06-25T21:06:08.066Z,99499.00
2018-06-25T21:08:36.349Z,99492.24
2018-06-25T21:11:04.787Z,99492.59
2018-06-25T21:13:33.057Z,99487.72
2018-06-25T21:16:01.370Z,99489.07
2018-06-25T21:18:29.666Z,99486.55
2018-06-25T21:20:57.981Z,99485.88
2018-06-25T21:23:26.294Z,99484.70
2018-06-25T21:25:54.752Z,99484.06
2018-06-25T21:28:23.053Z,99486.81
2018-06-25T21:30:51.394Z,99486.31
2018-06-25T21:33:19.698Z,99480.33
2018-06-25T21:35:48.114Z,99484.84
2018-06-25T21:38:16.526Z,99485.80
2018-06-25T21:40:44.901Z,99491.69
2018-06-25T21:43:13.177Z,99494.09
2018-06-25T21:45:41.506Z,99489.73
2018-06-25T21:48:09.883Z,99493.94
2018-06-25T21:50:38.318Z,99496.66
2018-06-25T21:53:06.897Z,99497.47
2018-06-25T21:55:35.202Z,99498.25
2018-06-25T21:58:03.628Z,99505.75
2018-06-25T22:00:43.323Z,99505.91
2018-06-25T22:03:11.914Z,99509.52
2018-06-25T22:05:40.273Z,99510.82
2018-06-25T22:08:08.788Z,99511.89
2018-06-25T22:10:37.090Z,99512.47
2018-06-25T22:13:05.599Z,99514.97
2018-06-25T22:15:33.943Z,99518.88
2018-06-25T22:18:02.429Z,99513.23
2018-06-25T22:20:30.734Z,99514.16
2018-06-25T22:22:59.214Z,99522.11
2018-06-25T22:25:27.542Z,99515.55
2018-06-25T22:27:56.255Z,99517.74
2018-06-25T22:30:24.737Z,99517.56
2018-06-25T22:32:53.446Z,99509.66
2018-06-25T22:35:21.895Z,99500.51
2018-06-25T22:37:50.834Z,99503.89
2018-06-25T22:40:19.135Z,99509.88
2018-06-25T22:42:47.678Z,99508.93
2018-06-25T22:45:15.949Z,99510.14
2018-06-25T22:47:44.438Z,99510.76
2018-06-25T22:50:12.880Z,99510.80
2018-06-25T22:52:41.501Z,99503.38
2018-06-25T22:55:09.864Z,99505.16
2018-06-25T22:57:38.200Z,99500.34
2018-06-25T23:00:06.814Z,99501.95
2018-06-25T23:02:35.152Z,99507.47
2018-06-25T23:05:03.455Z,99508.09
2018-06-25T23:07:31.766Z,99509.45
2018-06-25T23:10:00.038Z,99510.03
2018-06-25T23:12:28.342Z,99513.38
2018-06-25T23:14:56.835Z,99518.27
2018-06-25T23:17:25.156Z,99515.77
2018-06-25T23:19:53.482Z,99519.45
2018-06-25T23:22:21.816Z,99519.40
2018-06-25T23:24:50.140Z,99517.58
2018-06-25T23:27:18.573Z,99516.55
2018-06-25T23:29:46.858Z,99519.03
2018-06-25T23:32:15.190Z,99515.48
2018-06-25T23:34:43.457Z,99513.05
2018-06-25T23:37:11.774Z,99509.86
2018-06-25T23:39:40.046Z,99499.06
2018-06-25T23:42:08.350Z,99506.19
2018-06-25T23:44:36.618Z,99510.89
2018-06-25T23:47:04.972Z,99509.64
2018-06-25T23:49:33.238Z,99511.64
2018-06-25T23:52:01.546Z,99517.73
2018-06-25T23:54:29.835Z,99520.77
2018-06-25T23:56:58.139Z,99513.01
2018-06-25T23:59:26.434Z,99517.73
